Caliente, Nevada Weather observations

Data are for observation ending at time listed.
 Day   Time    Ave.   Ave.  Ave.  Vector   Max.   Stn.    Total    Solar   Ave.  
  of    of     Air    Rel.  Wind   Wind    Wind   Baro.  Precip.   Rad.    Soil  
Year   Day     Temp.  Hum.  Speed  Dir.    Gust   Pres.                    Temp. 
2016   (PST)    F      %     mph   deg.    mph     mb.     in.     W/m2     F   
------------------------------------------------------------------------------
 210   21:10   93.1    13    4.6   112     10.7   848.3    0.00       0    99999.0
 210   21:20   93.1    13    4.2   112      8.4   848.6    0.00       0    99999.0
 210   21:30   93.0    13    2.9    97      8.0   848.6    0.00       0    99999.0
 210   21:40   92.7    13    3.3   102      9.2   847.7    0.00       0    99999.0
 210   21:50   92.1    13    1.7   140      3.4   847.7    0.00       1    99999.0
 210   22:00   91.4    14    1.8   199      4.9   847.6    0.00       1    99999.0
 210   22:10   90.7    15    4.2   242      9.0   847.7    0.00       0    99999.0
 210   22:20   90.4    15    5.1   247      9.5   847.7    0.00       0    99999.0
 210   22:30   90.0    15    7.2   247     10.2   847.8    0.00       0    99999.0
 210   22:40   89.8    16    6.3   252     10.9   848.2    0.00       0    99999.0
 210   22:50   89.8    16    3.0   264      8.6   848.4    0.00       1    99999.0
 210   23:00   89.8    15    4.4   264      7.2   848.4    0.00       1    99999.0
 210   23:10   89.8    15    5.6   256      9.8   851.8    0.00       0    99999.0
 210   23:20   88.5    17    4.8   249      6.9   850.3    0.00       0    99999.0
 210   23:30   87.7    17    2.3   234      6.8   850.1    0.00       0    99999.0
 210   23:40   87.3    18    2.5   241      5.8   849.9    0.00       0    99999.0
 210   23:50   86.9    18    1.7   242      4.9   849.7    0.00       0    99999.0
 211    0:00   87.1    18    2.2   245      5.2   849.4    0.00       0    99999.0
 211    0:10   86.9    18    1.0   216      3.9   848.6    0.00       0    99999.0
 211    0:20   85.6    20    0.6   127      2.8   850.9    0.00       0    99999.0
 211    0:30   84.5    22    0.7   105      3.7   849.3    0.00       0    99999.0
 211    0:40   84.0    22    0.7   135      2.0   849.1    0.00       0    99999.0
 211    0:50   83.4    23    0.4   151      2.0   848.9    0.00       1    99999.0
 211    1:00   82.7    24    0.8   158      2.4   849.1    0.00       0    99999.0
 211    1:10   82.3    25    1.0   329      5.3   849.4    0.00       0    99999.0
 211    1:20   81.6    26    1.1   189      3.2   849.6    0.00       0    99999.0
 211    1:30   81.1    27    1.7   116      3.5   849.1    0.00       0    99999.0
 211    1:40   82.1    24    1.5   146      2.6   848.0    0.00       1    99999.0
 211    1:50   81.7    25    1.4    99      3.2   847.9    0.00       0    99999.0
 211    2:00   82.9    22    2.2   121      5.0   847.5    0.00       0    99999.0
 211    2:10   83.3    23    1.0   336      3.1   848.6    0.00       0    99999.0
 211    2:20   82.3    24    1.1   201      3.1   848.0    0.00       1    99999.0
 211    2:30   81.3    26    1.1   263      3.2   847.5    0.00       1    99999.0
 211    2:40   80.9    26    0.8   264      2.4   848.4    0.00       0    99999.0
 211    2:50   80.2    27    0.7    83      2.3   847.5    0.00       1    99999.0
 211    3:00   79.9    27    1.6   103      4.3   846.9    0.00       1    99999.0
 211    3:10   80.2    26    1.3    16      3.7   846.8    0.00       0    99999.0
 211    3:20   80.1    26    1.5   334      4.3   846.9    0.00       1    99999.0
 211    3:30   79.4    27    2.2    97      6.2   846.7    0.00       1    99999.0
 211    3:40   79.0    27    1.1   111      2.7   846.6    0.00       0    99999.0
 211    3:50   78.8    26    1.2    45      3.7   846.6    0.00       0    99999.0
 211    4:00   78.9    26    1.9    59      4.9   846.8    0.00       1    99999.0
 211    4:10   77.1    28    1.1   140      2.4   846.8    0.00       1    99999.0
 211    4:20   77.3    28    1.3    24      2.8   846.6    0.00       1    99999.0
 211    4:30   77.2    28    1.0    39      2.5   846.9    0.00       2    99999.0
 211    4:40   76.0    30    1.0   114      2.3   846.8    0.00       2    99999.0
 211    4:50   75.2    30    1.4   102      3.3   846.7    0.00       3    99999.0
 211    5:00   75.6    29    1.4    66      3.1   846.9    0.00       6    99999.0
 211    5:10   76.2    27    2.3   358      4.2   847.0    0.00      13    99999.0
 211    5:20   76.0    28    1.0   119      2.3   847.0    0.00      20    99999.0
 211    5:30   75.5    29    0.9   114      1.8   846.9    0.00      31    99999.0
 211    5:40   75.4    30    0.3   154      1.9   847.6    0.00      42    99999.0
 211    5:50   74.4    31    1.0    73      2.5   847.4    0.00      51    99999.0
 211    6:00   75.2    30    0.7    28      2.8   847.6    0.00      73    99999.0
 211    6:10   75.7    31    0.8    64      2.3   848.1    0.00      85    99999.0
 211    6:20   75.8    30    1.3    21      2.7   847.3    0.00     105    99999.0
 211    6:30   76.0    32    1.0   111      2.0   847.5    0.00     110    99999.0
 211    6:40   75.9    30    1.1     9      2.6   847.3    0.00     126    99999.0
 211    6:50   75.4    34    1.5   122      2.6   847.6    0.00     152    99999.0
 211    7:00   76.9    29    0.8   305      2.6   847.5    0.00     149    99999.0
 211    7:10   77.6    32    1.0    84      2.4   847.9    0.00     148    99999.0
 211    7:20   78.0    32    0.4   160      1.3   847.8    0.00     181    99999.0
 211    7:30   78.2    30    1.3   139      2.6   847.8    0.00     251    99999.0
 211    7:40   79.6    29    1.0   117      2.5   848.0    0.00     245    99999.0
 211    7:50   80.8    28    0.9   140      2.3   848.2    0.00     251    99999.0
 211    8:00   81.6    28    0.4    53      1.9   848.2    0.00     269    99999.0
 211    8:10   84.3    23    1.4   318      2.6   848.2    0.00     499    99999.0
 211    8:20   86.4    22    0.8   138      2.5   848.3    0.00     464    99999.0
 211    8:30   87.9    19    0.3    74      1.8   848.2    0.00     367    99999.0
 211    8:40   88.9    18    0.8    11      3.2   848.3    0.00     492    99999.0
 211    8:50   89.3    18    2.0    11      5.9   848.4    0.00     414    99999.0
 211    9:00   89.1    18    2.3     4      4.3   848.2    0.00     394    99999.0
 211    9:10   90.6    16    1.0    14      3.5   848.4    0.00     455    99999.0
 211    9:20   92.0    16    1.6    20      5.0   848.4    0.00     528    99999.0
 211    9:30   92.6    16    1.2    18      3.9   848.5    0.00     625    99999.0
 211    9:40   94.4    16    0.5   245      4.3   848.7    0.00     503    99999.0
 211    9:50   92.6    19    0.7   148      2.8   848.7    0.00     517    99999.0
 211   10:00   91.8    20    0.5   144      2.3   848.6    0.00     321    99999.0
 211   10:10   91.0    20    0.4   156      2.0   848.6    0.00     379    99999.0
 211   10:20   91.2    20    1.0   150      2.3   848.5    0.00     336    99999.0
 211   10:30   93.4    17    2.1   245      6.1   848.5    0.00     620    99999.0
 211   10:40   95.8    15    2.9   245      7.2   848.6    0.00     661    99999.0
 211   10:50   95.5    14    2.0   247      5.2   848.5    0.00     232    99999.0
 211   11:00   94.1    15    5.0   337     13.2   848.4    0.00     161    99999.0
 211   11:10   93.1    15    2.8   136      7.9   848.0    0.00     220    99999.0
 211   11:20   94.3    14    2.5   139      6.9   847.9    0.00     517    99999.0
 211   11:30   97.0    13    1.1   242      5.0   848.2    0.00     459    99999.0
 211   11:40   96.2    13    2.4   254      5.7   848.0    0.00     267    99999.0
 211   11:50   95.6    14    3.4   250      7.1   848.0    0.00     221    99999.0
 211   12:00   95.4    14    2.8   244      5.8   847.8    0.00     279    99999.0
 211   12:10   96.5    13    1.7   244      5.2   847.7    0.00     599    99999.0
 211   12:20   97.6    13    1.8   151      7.5   847.6    0.00     817    99999.0
 211   12:30   99.0    12    0.9   176      5.6   847.5    0.00     849    99999.0
 211   12:40   98.8    12    2.1   236     10.5   847.4    0.00     700    99999.0
 211   12:50   99.4    12    5.6   258     13.7   847.5    0.00     696    99999.0
 211   13:00   98.3    12    5.8   260     13.4   847.2    0.00     284    99999.0
 211   13:10   98.0    13    4.6   245     12.0   847.0    0.00     485    99999.0
 211   13:20   98.6    12    3.4   250      9.6   847.1    0.00     737    99999.0
 211   13:30  101.4    12    1.7   196      8.8   847.3    0.00     958    99999.0
 211   13:40   99.5    12    5.1   191     16.1   846.9    0.00     731    99999.0
 211   13:50  100.2    12    4.4   246     13.1   846.8    0.00     934    99999.0
 211   14:00  101.0    11    4.6   220     13.0   846.7    0.00     819    99999.0
 211   14:10   99.4    12    3.8   152     11.1   846.3    0.00     485    99999.0
 211   14:20  100.0    12    5.6   245     16.3   846.4    0.00     438    99999.0
 211   14:30   98.9    13    7.0   246     16.6   846.1    0.00     419    99999.0
 211   14:40   98.9    13    6.5   246     12.6   846.1    0.00     373    99999.0
 211   14:50   98.7    13    4.7   244     13.2   846.2    0.00     364    99999.0
 211   15:00   98.7    13    5.4   246     12.2   846.1    0.00     569    99999.0
 211   15:10   99.1    12    5.8   245     11.7   846.1    0.00     266    99999.0
 211   15:20   98.5    12    6.2   248     12.3   846.0    0.00     372    99999.0
 211   15:30   98.7    12   11.1   247     16.7   846.0    0.00     534    99999.0
 211   15:40   98.6    12   10.7   248     17.5   846.2    0.00     374    99999.0
 211   15:50   97.1    12    9.4   246     17.5   846.2    0.00     116    99999.0
 211   16:00   95.8    13    9.9   294     24.4   846.8    0.00      41    99999.0
 211   16:10   91.4    18    8.9   285     22.9   846.7    0.00      23    99999.0
 211   16:20   90.0    18   11.7   322     25.8   846.9    0.00      21    99999.0
 211   16:30   89.5    19    7.1   353     19.3   847.0    0.00      22    99999.0
 211   16:40   89.7    19    4.7    54     14.8   847.3    0.00      39    99999.0
 211   16:50   88.7    21    6.6    56     15.7   847.0    0.00      58    99999.0
 211   17:00   88.0    23    5.2    61     17.9   847.4    0.00      50    99999.0
 211   17:10   86.7    25    7.0    52     16.4   847.8    0.00      51    99999.0
 211   17:20   85.6    27    4.9    57     13.6   848.1    0.00      49    99999.0
 211   17:30   84.5    29    5.4    79     20.0   848.0    0.00      83    99999.0
 211   17:40   84.7    29    5.8    63     16.4   848.3    0.00      89    99999.0
 211   17:50   84.9    29    5.7    60     17.8   848.3    0.00      83    99999.0
 211   18:00   84.7    29    6.6    58     20.5   848.4    0.00      57    99999.0
 211   18:10   83.9    29    7.5    61     21.6   848.1    0.00      39    99999.0
 211   18:20   82.3    32    9.8    51     22.4   848.1    0.00      24    99999.0
 211   18:30   81.6    32    7.1    48     18.9   848.2    0.00      14    99999.0
 211   18:40   81.6    32    4.9    52     11.4   848.2    0.00       6    99999.0
 211   18:50   81.7    32    4.6    66     10.9   847.9    0.00       3    99999.0
 211   19:00   81.6    32    3.5    80     13.2   847.7    0.00       1    99999.0
 211   19:10   81.0    33    5.4   100     11.1   847.7    0.00       0    99999.0
 211   19:20   80.7    32    5.0   110      9.4   847.6    0.00       0    99999.0
 211   19:30   81.0    32    3.7   100      6.7   847.4    0.00       0    99999.0
 211   19:40   81.2    31    2.5   131      5.0   847.5    0.00       0    99999.0
 211   19:50   81.4    30    1.4   141      2.5   847.5    0.00       0    99999.0
 211   20:00   81.4    30    1.6   144      3.1   847.5    0.00       0    99999.0
 211   20:10   81.0    31    2.0   182      3.8   847.4    0.00       0    99999.0
 211   20:20   81.1    32    0.7   229      2.2   847.4    0.00       0    99999.0
 211   20:30   80.2    33    2.3    70      4.5   847.2    0.00       0    99999.0
 211   20:40   80.4    32    2.1   274      4.1   847.0    0.00       0    99999.0
 211   20:50   80.5    33    1.0   245      4.7   847.2    0.00       0    99999.0
 211   21:00   79.8    34    0.8   185      2.0   847.0    0.00       0    99999.0

Return to Caliente, Nevada graphs page.


Western Regional Climate Center,wrcc@dri.edu